sensor_id;sensor_type;location;lat;lon;timestamp;P1;durP1;ratioP1;P2;durP2;ratioP2
17993;SDS011;9122;48.406;9.984;2023-04-08T00:00:45;6.20;;;5.70;;
17993;SDS011;9122;48.406;9.984;2023-04-08T00:03:29;6.07;;;5.47;;
17993;SDS011;9122;48.406;9.984;2023-04-08T00:06:15;6.10;;;5.60;;
17993;SDS011;9122;48.406;9.984;2023-04-08T00:08:59;7.23;;;6.53;;
17993;SDS011;9122;48.406;9.984;2023-04-08T00:11:43;7.50;;;6.73;;
17993;SDS011;9122;48.406;9.984;2023-04-08T00:14:28;12.33;;;10.63;;
17993;SDS011;9122;48.406;9.984;2023-04-08T00:17:13;7.20;;;6.60;;
17993;SDS011;9122;48.406;9.984;2023-04-08T00:19:57;7.43;;;6.83;;
17993;SDS011;9122;48.406;9.984;2023-04-08T00:22:42;8.13;;;7.43;;
17993;SDS011;9122;48.406;9.984;2023-04-08T00:25:26;7.87;;;7.27;;
17993;SDS011;9122;48.406;9.984;2023-04-08T00:28:11;7.80;;;7.13;;
17993;SDS011;9122;48.406;9.984;2023-04-08T00:30:56;8.83;;;7.87;;
17993;SDS011;9122;48.406;9.984;2023-04-08T00:33:41;7.33;;;6.63;;
17993;SDS011;9122;48.406;9.984;2023-04-08T00:36:25;8.50;;;7.70;;
17993;SDS011;9122;48.406;9.984;2023-04-08T00:39:10;8.07;;;7.37;;
17993;SDS011;9122;48.406;9.984;2023-04-08T00:41:55;8.13;;;7.37;;
17993;SDS011;9122;48.406;9.984;2023-04-08T00:44:40;8.60;;;7.70;;
17993;SDS011;9122;48.406;9.984;2023-04-08T00:47:26;9.67;;;8.33;;
17993;SDS011;9122;48.406;9.984;2023-04-08T00:50:13;10.43;;;9.53;;
17993;SDS011;9122;48.406;9.984;2023-04-08T00:52:57;11.23;;;9.73;;
17993;SDS011;9122;48.406;9.984;2023-04-08T00:55:41;9.10;;;8.30;;
17993;SDS011;9122;48.406;9.984;2023-04-08T00:58:29;10.37;;;9.23;;
17993;SDS011;9122;48.406;9.984;2023-04-08T01:01:16;10.63;;;9.63;;
17993;SDS011;9122;48.406;9.984;2023-04-08T01:04:23;10.80;;;9.70;;
17993;SDS011;9122;48.406;9.984;2023-04-08T01:07:21;10.67;;;9.20;;
17993;SDS011;9122;48.406;9.984;2023-04-08T01:10:22;11.27;;;10.17;;
17993;SDS011;9122;48.406;9.984;2023-04-08T01:13:11;10.70;;;9.70;;
17993;SDS011;9122;48.406;9.984;2023-04-08T01:16:00;14.20;;;11.67;;
17993;SDS011;9122;48.406;9.984;2023-04-08T01:18:44;10.23;;;9.23;;
17993;SDS011;9122;48.406;9.984;2023-04-08T01:21:30;10.50;;;9.43;;
17993;SDS011;9122;48.406;9.984;2023-04-08T01:24:49;11.67;;;10.47;;
17993;SDS011;9122;48.406;9.984;2023-04-08T01:27:27;10.30;;;9.30;;
17993;SDS011;9122;48.406;9.984;2023-04-08T01:30:16;9.87;;;8.97;;
17993;SDS011;9122;48.406;9.984;2023-04-08T01:33:01;10.77;;;9.67;;
17993;SDS011;9122;48.406;9.984;2023-04-08T01:35:48;9.43;;;8.53;;
17993;SDS011;9122;48.406;9.984;2023-04-08T01:38:35;13.83;;;10.40;;
17993;SDS011;9122;48.406;9.984;2023-04-08T01:41:20;11.00;;;9.53;;
17993;SDS011;9122;48.406;9.984;2023-04-08T01:44:04;10.87;;;9.77;;
17993;SDS011;9122;48.406;9.984;2023-04-08T01:46:49;11.27;;;10.07;;
17993;SDS011;9122;48.406;9.984;2023-04-08T01:49:35;11.87;;;10.67;;
17993;SDS011;9122;48.406;9.984;2023-04-08T01:52:21;12.00;;;10.77;;
17993;SDS011;9122;48.406;9.984;2023-04-08T01:55:08;11.67;;;10.57;;
17993;SDS011;9122;48.406;9.984;2023-04-08T01:57:53;12.03;;;10.80;;
17993;SDS011;9122;48.406;9.984;2023-04-08T02:00:41;12.07;;;10.87;;
17993;SDS011;9122;48.406;9.984;2023-04-08T02:03:29;12.23;;;10.97;;
17993;SDS011;9122;48.406;9.984;2023-04-08T02:06:15;14.03;;;12.13;;
17993;SDS011;9122;48.406;9.984;2023-04-08T02:08:59;13.27;;;11.73;;
17993;SDS011;9122;48.406;9.984;2023-04-08T02:11:44;15.20;;;12.27;;
17993;SDS011;9122;48.406;9.984;2023-04-08T02:14:29;12.53;;;11.23;;
17993;SDS011;9122;48.406;9.984;2023-04-08T02:17:18;15.03;;;12.23;;
17993;SDS011;9122;48.406;9.984;2023-04-08T02:20:13;14.13;;;11.63;;
17993;SDS011;9122;48.406;9.984;2023-04-08T02:25:57;15.27;;;12.57;;
17993;SDS011;9122;48.406;9.984;2023-04-08T02:28:42;13.13;;;11.73;;
17993;SDS011;9122;48.406;9.984;2023-04-08T02:31:27;14.37;;;12.50;;
17993;SDS011;9122;48.406;9.984;2023-04-08T02:34:11;15.47;;;12.33;;
17993;SDS011;9122;48.406;9.984;2023-04-08T02:36:58;17.30;;;13.00;;
17993;SDS011;9122;48.406;9.984;2023-04-08T02:39:43;16.93;;;12.90;;
17993;SDS011;9122;48.406;9.984;2023-04-08T02:42:27;15.20;;;12.83;;
17993;SDS011;9122;48.406;9.984;2023-04-08T02:45:12;13.43;;;11.77;;
17993;SDS011;9122;48.406;9.984;2023-04-08T02:47:56;14.60;;;12.40;;
17993;SDS011;9122;48.406;9.984;2023-04-08T02:50:42;11.83;;;10.53;;
17993;SDS011;9122;48.406;9.984;2023-04-08T02:53:27;11.50;;;10.37;;
17993;SDS011;9122;48.406;9.984;2023-04-08T02:56:11;10.97;;;9.87;;
17993;SDS011;9122;48.406;9.984;2023-04-08T02:58:56;10.20;;;9.20;;
17993;SDS011;9122;48.406;9.984;2023-04-08T03:01:41;9.27;;;8.37;;
17993;SDS011;9122;48.406;9.984;2023-04-08T03:04:25;9.13;;;8.33;;
17993;SDS011;9122;48.406;9.984;2023-04-08T03:07:10;8.07;;;7.27;;
17993;SDS011;9122;48.406;9.984;2023-04-08T03:09:54;8.27;;;7.57;;
17993;SDS011;9122;48.406;9.984;2023-04-08T03:12:39;7.97;;;7.17;;
17993;SDS011;9122;48.406;9.984;2023-04-08T03:15:23;7.33;;;6.73;;
17993;SDS011;9122;48.406;9.984;2023-04-08T03:18:08;8.43;;;7.67;;
17993;SDS011;9122;48.406;9.984;2023-04-08T03:20:52;7.90;;;7.30;;
17993;SDS011;9122;48.406;9.984;2023-04-08T03:23:37;9.20;;;8.30;;
17993;SDS011;9122;48.406;9.984;2023-04-08T03:26:22;8.80;;;8.00;;
17993;SDS011;9122;48.406;9.984;2023-04-08T03:29:06;8.70;;;7.93;;
17993;SDS011;9122;48.406;9.984;2023-04-08T03:31:51;8.93;;;8.13;;
17993;SDS011;9122;48.406;9.984;2023-04-08T03:34:36;9.20;;;8.40;;
17993;SDS011;9122;48.406;9.984;2023-04-08T03:37:20;9.33;;;8.53;;
17993;SDS011;9122;48.406;9.984;2023-04-08T03:40:05;9.37;;;8.57;;
17993;SDS011;9122;48.406;9.984;2023-04-08T03:42:50;9.43;;;8.37;;
17993;SDS011;9122;48.406;9.984;2023-04-08T03:45:35;10.10;;;9.20;;
17993;SDS011;9122;48.406;9.984;2023-04-08T03:48:19;9.33;;;8.53;;
17993;SDS011;9122;48.406;9.984;2023-04-08T03:51:03;10.77;;;8.93;;
17993;SDS011;9122;48.406;9.984;2023-04-08T03:53:48;9.60;;;8.70;;
17993;SDS011;9122;48.406;9.984;2023-04-08T03:56:32;9.87;;;8.87;;
17993;SDS011;9122;48.406;9.984;2023-04-08T03:59:17;10.27;;;9.27;;
17993;SDS011;9122;48.406;9.984;2023-04-08T04:02:02;10.80;;;9.80;;
17993;SDS011;9122;48.406;9.984;2023-04-08T04:04:46;9.90;;;8.93;;
17993;SDS011;9122;48.406;9.984;2023-04-08T04:07:31;10.10;;;9.13;;
17993;SDS011;9122;48.406;9.984;2023-04-08T04:10:16;9.63;;;8.80;;
17993;SDS011;9122;48.406;9.984;2023-04-08T04:13:00;8.97;;;8.07;;
17993;SDS011;9122;48.406;9.984;2023-04-08T04:15:45;10.03;;;9.03;;
17993;SDS011;9122;48.406;9.984;2023-04-08T04:18:29;9.47;;;8.57;;
17993;SDS011;9122;48.406;9.984;2023-04-08T04:21:13;10.30;;;9.30;;
17993;SDS011;9122;48.406;9.984;2023-04-08T04:23:57;9.63;;;8.63;;
17993;SDS011;9122;48.406;9.984;2023-04-08T04:26:41;9.97;;;8.27;;
17993;SDS011;9122;48.406;9.984;2023-04-08T04:29:25;10.07;;;9.10;;
17993;SDS011;9122;48.406;9.984;2023-04-08T04:32:10;9.13;;;8.30;;
17993;SDS011;9122;48.406;9.984;2023-04-08T04:34:55;9.27;;;8.37;;
17993;SDS011;9122;48.406;9.984;2023-04-08T04:37:39;7.73;;;7.03;;
17993;SDS011;9122;48.406;9.984;2023-04-08T04:40:24;8.67;;;7.87;;
17993;SDS011;9122;48.406;9.984;2023-04-08T04:43:09;8.63;;;7.77;;
17993;SDS011;9122;48.406;9.984;2023-04-08T04:45:59;8.13;;;7.53;;
17993;SDS011;9122;48.406;9.984;2023-04-08T04:48:44;8.17;;;7.37;;
17993;SDS011;9122;48.406;9.984;2023-04-08T04:51:30;8.80;;;8.00;;
17993;SDS011;9122;48.406;9.984;2023-04-08T04:54:15;8.63;;;7.87;;
17993;SDS011;9122;48.406;9.984;2023-04-08T04:57:00;9.00;;;8.20;;
17993;SDS011;9122;48.406;9.984;2023-04-08T04:59:44;9.00;;;8.20;;
17993;SDS011;9122;48.406;9.984;2023-04-08T05:02:28;9.30;;;8.40;;
17993;SDS011;9122;48.406;9.984;2023-04-08T05:05:13;9.63;;;8.73;;
17993;SDS011;9122;48.406;9.984;2023-04-08T05:07:57;8.77;;;7.97;;
17993;SDS011;9122;48.406;9.984;2023-04-08T05:10:42;9.63;;;8.73;;
17993;SDS011;9122;48.406;9.984;2023-04-08T05:13:27;9.80;;;8.90;;
17993;SDS011;9122;48.406;9.984;2023-04-08T05:16:11;10.87;;;8.73;;
17993;SDS011;9122;48.406;9.984;2023-04-08T05:18:56;9.77;;;8.87;;
17993;SDS011;9122;48.406;9.984;2023-04-08T05:21:41;10.80;;;9.70;;
17993;SDS011;9122;48.406;9.984;2023-04-08T05:24:25;10.33;;;9.33;;
17993;SDS011;9122;48.406;9.984;2023-04-08T05:27:10;11.43;;;10.33;;
17993;SDS011;9122;48.406;9.984;2023-04-08T05:29:54;10.33;;;9.33;;
17993;SDS011;9122;48.406;9.984;2023-04-08T05:32:38;10.63;;;9.53;;
17993;SDS011;9122;48.406;9.984;2023-04-08T05:35:23;11.00;;;9.87;;
17993;SDS011;9122;48.406;9.984;2023-04-08T05:38:07;10.53;;;9.57;;
17993;SDS011;9122;48.406;9.984;2023-04-08T05:40:52;13.83;;;10.13;;
17993;SDS011;9122;48.406;9.984;2023-04-08T05:43:37;10.57;;;9.57;;
17993;SDS011;9122;48.406;9.984;2023-04-08T05:46:21;10.67;;;9.77;;
17993;SDS011;9122;48.406;9.984;2023-04-08T05:49:05;10.60;;;9.50;;
17993;SDS011;9122;48.406;9.984;2023-04-08T05:51:50;10.60;;;9.53;;
17993;SDS011;9122;48.406;9.984;2023-04-08T05:54:34;10.33;;;9.23;;
17993;SDS011;9122;48.406;9.984;2023-04-08T05:57:19;10.43;;;9.43;;
17993;SDS011;9122;48.406;9.984;2023-04-08T06:00:04;10.57;;;9.57;;
17993;SDS011;9122;48.406;9.984;2023-04-08T06:02:49;11.13;;;9.93;;
17993;SDS011;9122;48.406;9.984;2023-04-08T06:05:34;11.20;;;10.10;;
17993;SDS011;9122;48.406;9.984;2023-04-08T06:08:18;11.83;;;10.73;;
17993;SDS011;9122;48.406;9.984;2023-04-08T06:11:03;11.27;;;10.17;;
17993;SDS011;9122;48.406;9.984;2023-04-08T06:13:48;11.17;;;10.07;;
17993;SDS011;9122;48.406;9.984;2023-04-08T06:16:32;10.90;;;9.60;;
17993;SDS011;9122;48.406;9.984;2023-04-08T06:19:17;14.20;;;10.93;;
17993;SDS011;9122;48.406;9.984;2023-04-08T06:22:01;12.63;;;10.87;;
17993;SDS011;9122;48.406;9.984;2023-04-08T06:24:46;12.03;;;10.43;;
17993;SDS011;9122;48.406;9.984;2023-04-08T06:27:31;10.87;;;9.77;;
17993;SDS011;9122;48.406;9.984;2023-04-08T06:30:15;11.50;;;10.37;;
17993;SDS011;9122;48.406;9.984;2023-04-08T06:33:00;12.67;;;11.37;;
17993;SDS011;9122;48.406;9.984;2023-04-08T06:35:44;12.57;;;11.27;;
17993;SDS011;9122;48.406;9.984;2023-04-08T06:38:29;12.33;;;11.03;;
17993;SDS011;9122;48.406;9.984;2023-04-08T06:41:14;13.10;;;11.43;;
17993;SDS011;9122;48.406;9.984;2023-04-08T06:43:59;13.67;;;11.10;;
17993;SDS011;9122;48.406;9.984;2023-04-08T06:46:43;12.87;;;11.27;;
17993;SDS011;9122;48.406;9.984;2023-04-08T06:49:28;13.57;;;12.17;;
17993;SDS011;9122;48.406;9.984;2023-04-08T06:52:12;13.83;;;11.23;;
17993;SDS011;9122;48.406;9.984;2023-04-08T06:54:57;12.83;;;11.43;;
17993;SDS011;9122;48.406;9.984;2023-04-08T06:57:41;13.57;;;12.20;;
17993;SDS011;9122;48.406;9.984;2023-04-08T07:00:26;12.63;;;11.40;;
17993;SDS011;9122;48.406;9.984;2023-04-08T07:03:10;12.97;;;11.67;;
17993;SDS011;9122;48.406;9.984;2023-04-08T07:05:55;12.30;;;11.00;;
17993;SDS011;9122;48.406;9.984;2023-04-08T07:08:39;12.27;;;10.97;;
17993;SDS011;9122;48.406;9.984;2023-04-08T07:11:24;12.33;;;11.13;;
17993;SDS011;9122;48.406;9.984;2023-04-08T07:14:10;12.60;;;11.27;;
17993;SDS011;9122;48.406;9.984;2023-04-08T07:16:55;13.27;;;11.87;;
17993;SDS011;9122;48.406;9.984;2023-04-08T07:19:39;12.53;;;10.83;;
17993;SDS011;9122;48.406;9.984;2023-04-08T07:22:24;13.50;;;11.83;;
17993;SDS011;9122;48.406;9.984;2023-04-08T07:25:09;13.03;;;11.67;;
17993;SDS011;9122;48.406;9.984;2023-04-08T07:27:53;12.57;;;11.27;;
17993;SDS011;9122;48.406;9.984;2023-04-08T07:30:38;13.60;;;11.97;;
17993;SDS011;9122;48.406;9.984;2023-04-08T07:33:22;13.37;;;11.97;;
17993;SDS011;9122;48.406;9.984;2023-04-08T07:36:10;13.67;;;12.20;;
17993;SDS011;9122;48.406;9.984;2023-04-08T07:38:55;13.03;;;11.57;;
17993;SDS011;9122;48.406;9.984;2023-04-08T07:41:40;13.90;;;11.37;;
17993;SDS011;9122;48.406;9.984;2023-04-08T07:44:24;14.27;;;11.73;;
17993;SDS011;9122;48.406;9.984;2023-04-08T07:47:08;14.83;;;12.93;;
17993;SDS011;9122;48.406;9.984;2023-04-08T07:49:54;13.30;;;11.20;;
17993;SDS011;9122;48.406;9.984;2023-04-08T07:52:38;13.97;;;11.77;;
17993;SDS011;9122;48.406;9.984;2023-04-08T07:55:23;14.43;;;12.90;;
17993;SDS011;9122;48.406;9.984;2023-04-08T07:58:08;14.00;;;11.90;;
17993;SDS011;9122;48.406;9.984;2023-04-08T08:00:53;12.83;;;11.20;;
17993;SDS011;9122;48.406;9.984;2023-04-08T08:03:37;13.83;;;12.33;;
17993;SDS011;9122;48.406;9.984;2023-04-08T08:06:22;13.37;;;12.07;;
17993;SDS011;9122;48.406;9.984;2023-04-08T08:09:06;13.07;;;11.67;;
17993;SDS011;9122;48.406;9.984;2023-04-08T08:11:50;14.23;;;12.73;;
17993;SDS011;9122;48.406;9.984;2023-04-08T08:14:35;13.90;;;12.37;;
17993;SDS011;9122;48.406;9.984;2023-04-08T08:17:19;16.37;;;13.47;;
17993;SDS011;9122;48.406;9.984;2023-04-08T08:20:04;17.27;;;13.37;;
17993;SDS011;9122;48.406;9.984;2023-04-08T08:22:49;17.60;;;12.27;;
17993;SDS011;9122;48.406;9.984;2023-04-08T08:25:33;14.47;;;12.20;;
17993;SDS011;9122;48.406;9.984;2023-04-08T08:28:18;13.47;;;12.17;;
17993;SDS011;9122;48.406;9.984;2023-04-08T08:31:02;13.87;;;12.47;;
17993;SDS011;9122;48.406;9.984;2023-04-08T08:33:46;13.13;;;11.33;;
17993;SDS011;9122;48.406;9.984;2023-04-08T08:36:31;14.87;;;12.03;;
17993;SDS011;9122;48.406;9.984;2023-04-08T08:39:16;12.90;;;11.60;;
17993;SDS011;9122;48.406;9.984;2023-04-08T08:42:00;12.63;;;11.33;;
17993;SDS011;9122;48.406;9.984;2023-04-08T08:44:44;13.30;;;12.00;;
17993;SDS011;9122;48.406;9.984;2023-04-08T08:47:29;11.73;;;10.63;;
17993;SDS011;9122;48.406;9.984;2023-04-08T08:50:14;12.40;;;11.03;;
17993;SDS011;9122;48.406;9.984;2023-04-08T08:52:58;13.53;;;12.03;;
17993;SDS011;9122;48.406;9.984;2023-04-08T08:55:43;13.63;;;11.33;;
17993;SDS011;9122;48.406;9.984;2023-04-08T08:58:27;11.43;;;10.33;;
17993;SDS011;9122;48.406;9.984;2023-04-08T09:04:18;12.47;;;11.17;;
17993;SDS011;9122;48.406;9.984;2023-04-08T09:07:08;12.87;;;10.90;;
17993;SDS011;9122;48.406;9.984;2023-04-08T09:09:54;12.63;;;11.33;;
17993;SDS011;9122;48.406;9.984;2023-04-08T09:12:53;11.53;;;10.37;;
17993;SDS011;9122;48.406;9.984;2023-04-08T09:15:59;11.77;;;10.57;;
17993;SDS011;9122;48.406;9.984;2023-04-08T09:18:46;11.57;;;10.37;;
17993;SDS011;9122;48.406;9.984;2023-04-08T09:21:31;10.93;;;9.93;;
17993;SDS011;9122;48.406;9.984;2023-04-08T09:24:26;11.37;;;10.27;;
17993;SDS011;9122;48.406;9.984;2023-04-08T09:27:12;10.57;;;9.47;;
17993;SDS011;9122;48.406;9.984;2023-04-08T09:30:11;12.77;;;11.50;;
17993;SDS011;9122;48.406;9.984;2023-04-08T09:32:57;11.63;;;10.40;;
17993;SDS011;9122;48.406;9.984;2023-04-08T09:35:41;10.87;;;9.87;;
17993;SDS011;9122;48.406;9.984;2023-04-08T09:38:29;11.73;;;10.53;;
17993;SDS011;9122;48.406;9.984;2023-04-08T09:41:15;12.20;;;10.90;;
17993;SDS011;9122;48.406;9.984;2023-04-08T09:44:01;12.43;;;10.30;;
17993;SDS011;9122;48.406;9.984;2023-04-08T09:50:01;10.87;;;9.80;;
17993;SDS011;9122;48.406;9.984;2023-04-08T09:52:50;12.27;;;10.20;;
17993;SDS011;9122;48.406;9.984;2023-04-08T09:55:40;11.20;;;10.10;;
17993;SDS011;9122;48.406;9.984;2023-04-08T09:58:30;11.53;;;10.03;;
17993;SDS011;9122;48.406;9.984;2023-04-08T10:01:23;11.13;;;10.03;;
17993;SDS011;9122;48.406;9.984;2023-04-08T10:04:15;11.67;;;10.47;;
17993;SDS011;9122;48.406;9.984;2023-04-08T10:07:05;11.13;;;10.13;;
17993;SDS011;9122;48.406;9.984;2023-04-08T10:09:50;10.80;;;9.87;;
17993;SDS011;9122;48.406;9.984;2023-04-08T10:12:35;11.33;;;10.17;;
17993;SDS011;9122;48.406;9.984;2023-04-08T10:15:32;11.47;;;10.27;;
17993;SDS011;9122;48.406;9.984;2023-04-08T10:21:04;10.83;;;9.73;;
17993;SDS011;9122;48.406;9.984;2023-04-08T10:24:19;11.10;;;9.93;;
17993;SDS011;9122;48.406;9.984;2023-04-08T10:27:15;11.27;;;10.17;;
17993;SDS011;9122;48.406;9.984;2023-04-08T10:38:52;11.70;;;10.33;;
17993;SDS011;9122;48.406;9.984;2023-04-08T10:41:43;13.03;;;11.60;;
17993;SDS011;9122;48.406;9.984;2023-04-08T10:44:27;12.53;;;11.43;;
17993;SDS011;9122;48.406;9.984;2023-04-08T10:47:12;12.80;;;11.50;;
17993;SDS011;9122;48.406;9.984;2023-04-08T10:49:56;12.47;;;11.30;;
17993;SDS011;9122;48.406;9.984;2023-04-08T10:52:47;12.53;;;11.37;;
17993;SDS011;9122;48.406;9.984;2023-04-08T10:55:32;12.00;;;10.90;;
17993;SDS011;9122;48.406;9.984;2023-04-08T10:58:17;12.23;;;11.07;;
17993;SDS011;9122;48.406;9.984;2023-04-08T11:01:03;12.47;;;11.17;;
17993;SDS011;9122;48.406;9.984;2023-04-08T11:03:51;11.90;;;10.83;;
17993;SDS011;9122;48.406;9.984;2023-04-08T11:06:35;12.87;;;11.50;;
17993;SDS011;9122;48.406;9.984;2023-04-08T11:09:24;13.07;;;11.70;;
17993;SDS011;9122;48.406;9.984;2023-04-08T11:12:09;13.17;;;11.77;;
17993;SDS011;9122;48.406;9.984;2023-04-08T11:14:54;11.57;;;10.47;;
17993;SDS011;9122;48.406;9.984;2023-04-08T11:17:40;11.83;;;10.80;;
17993;SDS011;9122;48.406;9.984;2023-04-08T11:20:25;13.03;;;11.83;;
17993;SDS011;9122;48.406;9.984;2023-04-08T11:23:12;18.97;;;16.03;;
17993;SDS011;9122;48.406;9.984;2023-04-08T11:25:57;14.23;;;12.83;;
17993;SDS011;9122;48.406;9.984;2023-04-08T11:28:42;15.20;;;13.60;;
17993;SDS011;9122;48.406;9.984;2023-04-08T11:31:28;13.73;;;12.43;;
17993;SDS011;9122;48.406;9.984;2023-04-08T11:34:13;13.20;;;11.90;;
17993;SDS011;9122;48.406;9.984;2023-04-08T11:37:05;12.57;;;11.43;;
17993;SDS011;9122;48.406;9.984;2023-04-08T11:39:49;13.23;;;11.93;;
17993;SDS011;9122;48.406;9.984;2023-04-08T11:42:34;13.40;;;12.13;;
17993;SDS011;9122;48.406;9.984;2023-04-08T11:45:19;12.57;;;11.43;;
17993;SDS011;9122;48.406;9.984;2023-04-08T11:48:13;13.30;;;11.93;;
17993;SDS011;9122;48.406;9.984;2023-04-08T11:51:03;14.73;;;13.27;;
17993;SDS011;9122;48.406;9.984;2023-04-08T11:53:55;12.83;;;11.67;;
17993;SDS011;9122;48.406;9.984;2023-04-08T11:56:44;13.37;;;11.97;;
17993;SDS011;9122;48.406;9.984;2023-04-08T11:59:31;13.83;;;12.40;;
17993;SDS011;9122;48.406;9.984;2023-04-08T12:02:16;14.90;;;13.30;;
17993;SDS011;9122;48.406;9.984;2023-04-08T12:05:00;13.77;;;12.47;;
17993;SDS011;9122;48.406;9.984;2023-04-08T12:07:45;15.30;;;13.63;;
17993;SDS011;9122;48.406;9.984;2023-04-08T12:10:30;14.83;;;13.33;;
17993;SDS011;9122;48.406;9.984;2023-04-08T12:13:18;14.67;;;13.17;;
17993;SDS011;9122;48.406;9.984;2023-04-08T12:16:03;13.57;;;12.27;;
17993;SDS011;9122;48.406;9.984;2023-04-08T12:18:48;14.57;;;13.17;;
17993;SDS011;9122;48.406;9.984;2023-04-08T12:21:33;13.90;;;12.50;;
17993;SDS011;9122;48.406;9.984;2023-04-08T12:24:21;13.53;;;12.27;;
17993;SDS011;9122;48.406;9.984;2023-04-08T12:27:05;14.23;;;12.83;;
17993;SDS011;9122;48.406;9.984;2023-04-08T12:29:49;13.33;;;12.03;;
17993;SDS011;9122;48.406;9.984;2023-04-08T12:32:35;15.10;;;13.60;;
17993;SDS011;9122;48.406;9.984;2023-04-08T12:35:20;13.90;;;12.53;;
17993;SDS011;9122;48.406;9.984;2023-04-08T12:38:05;13.90;;;12.53;;
17993;SDS011;9122;48.406;9.984;2023-04-08T12:40:54;13.87;;;12.47;;
17993;SDS011;9122;48.406;9.984;2023-04-08T12:43:38;13.47;;;12.07;;
17993;SDS011;9122;48.406;9.984;2023-04-08T12:46:23;14.83;;;13.43;;
17993;SDS011;9122;48.406;9.984;2023-04-08T12:49:07;15.17;;;13.67;;
17993;SDS011;9122;48.406;9.984;2023-04-08T12:51:52;14.03;;;12.70;;
17993;SDS011;9122;48.406;9.984;2023-04-08T12:54:37;14.97;;;13.53;;
17993;SDS011;9122;48.406;9.984;2023-04-08T12:57:22;13.43;;;12.03;;
17993;SDS011;9122;48.406;9.984;2023-04-08T13:00:06;15.60;;;14.00;;
17993;SDS011;9122;48.406;9.984;2023-04-08T13:02:51;13.30;;;12.00;;
17993;SDS011;9122;48.406;9.984;2023-04-08T13:05:35;15.80;;;14.17;;
17993;SDS011;9122;48.406;9.984;2023-04-08T13:08:20;26.43;;;23.90;;
17993;SDS011;9122;48.406;9.984;2023-04-08T13:11:05;15.43;;;14.17;;
17993;SDS011;9122;48.406;9.984;2023-04-08T13:13:50;13.27;;;11.97;;
17993;SDS011;9122;48.406;9.984;2023-04-08T13:16:35;19.33;;;17.40;;
17993;SDS011;9122;48.406;9.984;2023-04-08T13:19:19;13.33;;;11.73;;
17993;SDS011;9122;48.406;9.984;2023-04-08T13:22:03;11.07;;;10.07;;
17993;SDS011;9122;48.406;9.984;2023-04-08T13:24:48;10.60;;;9.60;;
17993;SDS011;9122;48.406;9.984;2023-04-08T13:27:33;9.53;;;8.77;;
17993;SDS011;9122;48.406;9.984;2023-04-08T13:30:17;11.80;;;10.60;;
17993;SDS011;9122;48.406;9.984;2023-04-08T13:33:02;10.33;;;9.40;;
17993;SDS011;9122;48.406;9.984;2023-04-08T13:35:47;10.67;;;9.67;;
17993;SDS011;9122;48.406;9.984;2023-04-08T13:38:31;9.93;;;9.03;;
17993;SDS011;9122;48.406;9.984;2023-04-08T13:41:16;11.43;;;10.33;;
17993;SDS011;9122;48.406;9.984;2023-04-08T13:44:03;10.53;;;9.57;;
17993;SDS011;9122;48.406;9.984;2023-04-08T13:46:50;10.17;;;9.27;;
17993;SDS011;9122;48.406;9.984;2023-04-08T13:49:35;11.37;;;9.60;;
17993;SDS011;9122;48.406;9.984;2023-04-08T13:52:20;10.33;;;9.33;;
17993;SDS011;9122;48.406;9.984;2023-04-08T13:55:05;10.50;;;9.23;;
17993;SDS011;9122;48.406;9.984;2023-04-08T13:57:49;9.77;;;8.83;;
17993;SDS011;9122;48.406;9.984;2023-04-08T14:00:33;9.57;;;8.67;;
17993;SDS011;9122;48.406;9.984;2023-04-08T14:03:18;11.13;;;10.03;;
17993;SDS011;9122;48.406;9.984;2023-04-08T14:06:03;9.53;;;8.63;;
17993;SDS011;9122;48.406;9.984;2023-04-08T14:08:47;9.40;;;8.57;;
17993;SDS011;9122;48.406;9.984;2023-04-08T14:11:32;9.13;;;8.30;;
17993;SDS011;9122;48.406;9.984;2023-04-08T14:14:17;10.23;;;9.23;;
17993;SDS011;9122;48.406;9.984;2023-04-08T14:17:01;10.13;;;9.20;;
17993;SDS011;9122;48.406;9.984;2023-04-08T14:19:45;9.20;;;8.30;;
17993;SDS011;9122;48.406;9.984;2023-04-08T14:22:29;10.33;;;9.20;;
17993;SDS011;9122;48.406;9.984;2023-04-08T14:25:13;10.40;;;9.30;;
17993;SDS011;9122;48.406;9.984;2023-04-08T14:27:58;10.50;;;9.50;;
17993;SDS011;9122;48.406;9.984;2023-04-08T14:30:43;10.17;;;9.23;;
17993;SDS011;9122;48.406;9.984;2023-04-08T14:33:27;9.90;;;9.03;;
17993;SDS011;9122;48.406;9.984;2023-04-08T14:36:11;10.93;;;9.90;;
17993;SDS011;9122;48.406;9.984;2023-04-08T14:38:57;9.77;;;8.87;;
17993;SDS011;9122;48.406;9.984;2023-04-08T14:41:41;9.80;;;8.80;;
17993;SDS011;9122;48.406;9.984;2023-04-08T14:44:26;9.43;;;8.60;;
17993;SDS011;9122;48.406;9.984;2023-04-08T14:47:10;9.67;;;8.77;;
17993;SDS011;9122;48.406;9.984;2023-04-08T14:49:55;10.23;;;9.23;;
17993;SDS011;9122;48.406;9.984;2023-04-08T14:52:39;9.87;;;9.07;;
17993;SDS011;9122;48.406;9.984;2023-04-08T14:55:23;9.97;;;9.07;;
17993;SDS011;9122;48.406;9.984;2023-04-08T14:58:08;9.50;;;8.60;;
17993;SDS011;9122;48.406;9.984;2023-04-08T15:00:53;9.77;;;8.87;;
17993;SDS011;9122;48.406;9.984;2023-04-08T15:03:39;14.30;;;10.87;;
17993;SDS011;9122;48.406;9.984;2023-04-08T15:06:23;9.43;;;8.63;;
17993;SDS011;9122;48.406;9.984;2023-04-08T15:09:09;10.00;;;9.07;;
17993;SDS011;9122;48.406;9.984;2023-04-08T15:11:54;8.90;;;8.00;;
17993;SDS011;9122;48.406;9.984;2023-04-08T15:14:41;8.67;;;7.93;;
17993;SDS011;9122;48.406;9.984;2023-04-08T15:17:29;9.67;;;8.67;;
17993;SDS011;9122;48.406;9.984;2023-04-08T15:20:17;9.10;;;8.20;;
17993;SDS011;9122;48.406;9.984;2023-04-08T15:23:01;8.03;;;7.37;;
17993;SDS011;9122;48.406;9.984;2023-04-08T15:25:46;7.50;;;6.90;;
17993;SDS011;9122;48.406;9.984;2023-04-08T15:28:31;7.50;;;6.90;;
17993;SDS011;9122;48.406;9.984;2023-04-08T15:31:15;7.97;;;7.27;;
17993;SDS011;9122;48.406;9.984;2023-04-08T15:34:00;8.53;;;7.73;;
17993;SDS011;9122;48.406;9.984;2023-04-08T15:36:45;7.10;;;6.57;;
17993;SDS011;9122;48.406;9.984;2023-04-08T15:39:30;9.93;;;8.67;;
17993;SDS011;9122;48.406;9.984;2023-04-08T15:42:14;9.30;;;8.40;;
17993;SDS011;9122;48.406;9.984;2023-04-08T15:44:59;9.23;;;8.43;;
17993;SDS011;9122;48.406;9.984;2023-04-08T15:47:43;8.10;;;7.40;;
17993;SDS011;9122;48.406;9.984;2023-04-08T15:50:28;8.27;;;7.67;;
17993;SDS011;9122;48.406;9.984;2023-04-08T15:53:13;8.80;;;8.00;;
17993;SDS011;9122;48.406;9.984;2023-04-08T15:55:58;8.90;;;8.13;;
17993;SDS011;9122;48.406;9.984;2023-04-08T15:58:43;8.53;;;7.63;;
17993;SDS011;9122;48.406;9.984;2023-04-08T16:01:28;8.60;;;7.90;;
17993;SDS011;9122;48.406;9.984;2023-04-08T16:04:12;12.03;;;10.93;;
17993;SDS011;9122;48.406;9.984;2023-04-08T16:06:57;8.33;;;7.70;;
17993;SDS011;9122;48.406;9.984;2023-04-08T16:09:42;8.83;;;8.13;;
17993;SDS011;9122;48.406;9.984;2023-04-08T16:12:26;9.10;;;8.37;;
17993;SDS011;9122;48.406;9.984;2023-04-08T16:15:11;8.17;;;7.47;;
17993;SDS011;9122;48.406;9.984;2023-04-08T16:17:56;9.17;;;8.37;;
17993;SDS011;9122;48.406;9.984;2023-04-08T16:20:40;9.53;;;8.53;;
17993;SDS011;9122;48.406;9.984;2023-04-08T16:23:25;9.53;;;8.67;;
17993;SDS011;9122;48.406;9.984;2023-04-08T16:26:09;9.27;;;8.47;;
17993;SDS011;9122;48.406;9.984;2023-04-08T16:28:53;10.90;;;9.90;;
17993;SDS011;9122;48.406;9.984;2023-04-08T16:31:38;10.40;;;9.50;;
17993;SDS011;9122;48.406;9.984;2023-04-08T16:34:23;11.23;;;9.80;;
17993;SDS011;9122;48.406;9.984;2023-04-08T16:37:08;10.80;;;9.70;;
17993;SDS011;9122;48.406;9.984;2023-04-08T16:39:53;11.00;;;9.97;;
17993;SDS011;9122;48.406;9.984;2023-04-08T16:42:38;10.93;;;9.97;;
17993;SDS011;9122;48.406;9.984;2023-04-08T16:45:23;11.20;;;10.20;;
17993;SDS011;9122;48.406;9.984;2023-04-08T16:48:07;10.70;;;9.73;;
17993;SDS011;9122;48.406;9.984;2023-04-08T16:50:52;11.40;;;10.33;;
17993;SDS011;9122;48.406;9.984;2023-04-08T16:53:36;10.93;;;9.93;;
17993;SDS011;9122;48.406;9.984;2023-04-08T16:56:20;11.53;;;10.53;;